createdAt,value
2022-09-02T00:03:42.604Z,14.10
2022-09-02T00:08:43.342Z,14.09
2022-09-02T00:13:44.053Z,14.10
2022-09-02T00:18:45.845Z,14.02
2022-09-02T00:23:45.738Z,13.88
2022-09-02T00:28:51.126Z,13.87
2022-09-02T00:33:48.158Z,13.89
2022-09-02T00:38:47.934Z,14.04
2022-09-02T00:43:48.599Z,14.14
2022-09-02T00:48:49.343Z,14.20
2022-09-02T00:53:50.080Z,14.20
2022-09-02T00:58:50.787Z,14.25
2022-09-02T01:03:51.504Z,14.27
2022-09-02T01:08:52.270Z,14.40
2022-09-02T01:13:53.012Z,14.43
2022-09-02T01:18:53.845Z,14.55
2022-09-02T01:23:54.544Z,14.61
2022-09-02T01:28:55.240Z,14.51
2022-09-02T01:33:55.976Z,14.42
2022-09-02T01:38:56.778Z,14.37
2022-09-02T01:43:57.490Z,14.42
2022-09-02T01:48:58.263Z,14.43
2022-09-02T01:53:59.045Z,14.40
2022-09-02T01:58:59.891Z,14.32
2022-09-02T02:04:00.903Z,14.36
2022-09-02T02:09:01.129Z,14.32
2022-09-02T02:14:01.841Z,14.29
2022-09-02T02:19:02.581Z,14.29
2022-09-02T02:24:03.288Z,14.24
2022-09-02T02:29:04.075Z,14.32
2022-09-02T02:34:04.750Z,14.37
2022-09-02T02:39:05.563Z,14.39
2022-09-02T02:44:06.259Z,14.32
2022-09-02T02:49:06.963Z,14.35
2022-09-02T02:54:07.694Z,14.27
2022-09-02T02:59:08.464Z,14.18
2022-09-02T03:04:09.151Z,14.22
2022-09-02T03:09:10.076Z,14.14
2022-09-02T03:14:10.805Z,14.07
2022-09-02T03:19:11.614Z,13.85
2022-09-02T03:24:12.372Z,13.73
2022-09-02T03:29:13.288Z,13.60
2022-09-02T03:34:14.089Z,13.45
2022-09-02T03:39:14.928Z,13.38
2022-09-02T03:44:15.737Z,13.45
2022-09-02T03:49:16.409Z,13.49
2022-09-02T03:54:17.142Z,13.30
2022-09-02T03:59:17.793Z,13.33
2022-09-02T04:04:22.615Z,13.45
2022-09-02T04:09:19.023Z,13.41
2022-09-02T04:14:19.756Z,13.44
2022-09-02T04:19:20.558Z,13.38
2022-09-02T04:24:21.353Z,13.39
2022-09-02T04:29:22.020Z,13.45
2022-09-02T04:34:22.707Z,13.48
2022-09-02T04:39:23.392Z,13.49
2022-09-02T04:44:24.143Z,13.29
2022-09-02T04:49:31.271Z,13.39
2022-09-02T04:54:26.104Z,13.51
2022-09-02T04:59:26.577Z,13.59
2022-09-02T05:04:26.300Z,13.70
2022-09-02T05:09:26.968Z,13.85
2022-09-02T05:14:27.704Z,13.81
2022-09-02T05:19:28.854Z,13.81
2022-09-02T05:24:29.786Z,13.82
2022-09-02T05:29:30.188Z,13.91
2022-09-02T05:34:31.088Z,14.09
2022-09-02T05:39:31.926Z,14.09
2022-09-02T05:44:32.714Z,14.12
2022-09-02T05:49:33.895Z,14.40
2022-09-02T05:54:34.125Z,14.51
2022-09-02T05:59:35.941Z,14.73
2022-09-02T06:04:35.804Z,14.89
2022-09-02T06:09:37.706Z,14.88
2022-09-02T06:14:37.537Z,14.68
2022-09-02T06:19:38.291Z,14.72
2022-09-02T06:24:39.258Z,14.95
2022-09-02T06:29:40.157Z,15.07
2022-09-02T06:34:41.118Z,15.23
2022-09-02T06:39:41.514Z,15.41
2022-09-02T06:44:42.348Z,15.60
2022-09-02T06:49:43.031Z,15.71
2022-09-02T06:54:43.775Z,15.53
2022-09-02T06:59:44.603Z,15.64
2022-09-02T07:04:45.304Z,15.65
2022-09-02T07:09:45.981Z,15.86
2022-09-02T07:14:46.695Z,15.92
2022-09-02T07:19:47.404Z,15.96
2022-09-02T07:24:48.107Z,16.20
2022-09-02T07:29:48.794Z,16.30
2022-09-02T07:34:49.568Z,16.48
2022-09-02T07:39:50.249Z,16.78
2022-09-02T07:44:50.994Z,16.94
2022-09-02T07:50:21.914Z,17.19
2022-09-02T07:54:53.323Z,17.22
2022-09-02T07:59:52.965Z,17.30
2022-09-02T08:04:53.677Z,17.41
2022-09-02T08:09:54.333Z,17.71
2022-09-02T08:14:55.174Z,18.03
2022-09-02T08:19:55.964Z,18.18
2022-09-02T08:24:56.626Z,18.30
2022-09-02T08:29:57.381Z,18.52
2022-09-02T08:34:58.253Z,18.72
2022-09-02T08:39:59.082Z,18.82
2022-09-02T08:44:59.782Z,18.85
2022-09-02T08:50:00.604Z,18.87
2022-09-02T08:55:01.329Z,18.94
2022-09-02T09:00:02.016Z,19.29
2022-09-02T09:05:02.738Z,19.69
2022-09-02T09:10:03.407Z,19.63
2022-09-02T09:15:04.122Z,19.54
2022-09-02T09:20:04.774Z,19.65
2022-09-02T09:25:05.659Z,19.95
2022-09-02T09:30:06.350Z,20.05
2022-09-02T09:35:07.033Z,20.16
2022-09-02T09:40:07.808Z,20.47
2022-09-02T09:45:08.477Z,20.84
2022-09-02T09:50:09.173Z,20.94
2022-09-02T09:55:12.390Z,20.80
2022-09-02T10:00:10.291Z,20.88
2022-09-02T10:05:10.987Z,20.72
2022-09-02T10:10:11.641Z,20.55
2022-09-02T10:15:12.528Z,20.74
2022-09-02T10:20:12.849Z,20.79
2022-09-02T10:25:13.509Z,20.95
2022-09-02T10:30:14.189Z,21.34
2022-09-02T10:35:15.047Z,21.61
2022-09-02T10:40:16.061Z,21.40
2022-09-02T10:45:16.287Z,20.89
2022-09-02T10:50:24.147Z,20.92
2022-09-02T10:55:17.795Z,20.91
2022-09-02T11:00:18.497Z,20.91
2022-09-02T11:05:19.196Z,21.43
2022-09-02T11:10:19.842Z,21.13
2022-09-02T11:15:20.532Z,21.96
2022-09-02T11:20:21.213Z,22.35
2022-09-02T11:25:21.937Z,22.51
2022-09-02T11:30:22.726Z,22.51
2022-09-02T11:35:23.487Z,21.90
2022-09-02T11:40:34.308Z,22.36
2022-09-02T11:45:25.726Z,22.33
2022-09-02T11:50:25.418Z,22.91
2022-09-02T11:55:26.124Z,22.85
2022-09-02T12:00:26.802Z,22.49
2022-09-02T12:05:27.563Z,22.79
2022-09-02T12:10:28.322Z,23.46
2022-09-02T12:15:29.113Z,23.65
2022-09-02T12:20:29.710Z,23.75
2022-09-02T12:25:30.364Z,23.98
2022-09-02T12:30:31.031Z,23.47
2022-09-02T12:35:31.909Z,23.43
2022-09-02T12:40:32.671Z,23.02
2022-09-02T12:45:33.353Z,22.82
2022-09-02T12:50:34.026Z,22.46
2022-09-02T12:55:34.689Z,22.00
2022-09-02T13:00:35.359Z,21.68
2022-09-02T13:05:36.259Z,21.56
2022-09-02T13:10:37.134Z,21.43
2022-09-02T13:15:38.026Z,21.56
2022-09-02T13:20:38.935Z,21.72
2022-09-02T13:25:41.482Z,21.79
2022-09-02T13:30:40.301Z,22.27
2022-09-02T13:35:41.024Z,23.02
2022-09-02T13:40:43.722Z,23.23
2022-09-02T13:45:42.556Z,22.46
2022-09-02T13:50:43.212Z,21.82
2022-09-02T13:55:43.920Z,21.69
2022-09-02T14:00:44.689Z,21.75
2022-09-02T14:05:47.562Z,22.21
2022-09-02T14:10:45.861Z,22.86
2022-09-02T14:15:46.551Z,23.00
2022-09-02T14:20:47.404Z,22.79
2022-09-02T14:25:48.291Z,22.68
2022-09-02T14:30:48.582Z,22.62
2022-09-02T14:35:50.447Z,22.79
2022-09-02T14:40:50.271Z,22.54
2022-09-02T14:45:51.141Z,22.45
2022-09-02T14:50:52.032Z,22.27
2022-09-02T14:55:54.148Z,22.22
2022-09-02T15:00:53.765Z,22.17
2022-09-02T15:05:54.177Z,21.77
2022-09-02T15:10:54.889Z,21.24
2022-09-02T15:15:57.869Z,21.04
2022-09-02T15:20:56.488Z,20.98
2022-09-02T15:25:56.783Z,21.38
2022-09-02T15:30:57.459Z,21.75
2022-09-02T15:35:58.325Z,21.84
2022-09-02T15:41:01.066Z,21.77
2022-09-02T15:45:59.865Z,21.75
2022-09-02T15:56:01.141Z,21.29
2022-09-02T16:01:01.819Z,21.22
2022-09-02T16:06:02.518Z,21.16
2022-09-02T16:11:03.219Z,21.12
2022-09-02T16:16:11.831Z,21.14
2022-09-02T16:21:05.375Z,21.13
2022-09-02T16:26:05.148Z,21.09
2022-09-02T16:31:05.798Z,21.04
2022-09-02T16:36:06.219Z,20.87
2022-09-02T16:41:06.896Z,20.74
2022-09-02T16:46:08.063Z,20.62
2022-09-02T16:51:15.225Z,20.52
2022-09-02T16:56:08.762Z,20.50
2022-09-02T17:01:09.362Z,20.48
2022-09-02T17:06:10.015Z,20.39
2022-09-02T17:11:10.686Z,20.26
2022-09-02T17:16:11.428Z,20.13
2022-09-02T17:21:12.076Z,20.01
2022-09-02T17:26:12.749Z,19.91
2022-09-02T17:31:13.549Z,19.80
2022-09-02T17:36:14.239Z,19.69
2022-09-02T17:41:14.916Z,19.55
2022-09-02T17:46:15.625Z,19.43
2022-09-02T17:51:19.697Z,19.29
2022-09-02T17:56:17.075Z,19.18
2022-09-02T18:01:17.836Z,19.00
2022-09-02T18:06:18.529Z,18.87
2022-09-02T18:11:20.507Z,18.80
2022-09-02T18:16:23.055Z,18.65
2022-09-02T18:21:20.640Z,18.58
2022-09-02T18:26:21.292Z,18.50
2022-09-02T18:31:22.051Z,18.39
2022-09-02T18:36:22.812Z,18.33
2022-09-02T18:41:23.500Z,18.25
2022-09-02T18:46:24.321Z,18.14
2022-09-02T18:51:25.065Z,18.07
2022-09-02T18:56:25.830Z,17.96
2022-09-02T19:01:26.671Z,17.87
2022-09-02T19:06:27.461Z,17.79
2022-09-02T19:11:28.237Z,17.70
2022-09-02T19:16:28.986Z,17.58
2022-09-02T19:21:29.727Z,17.49
2022-09-02T19:26:30.450Z,17.41
2022-09-02T19:31:31.258Z,17.33
2022-09-02T19:36:32.008Z,17.30
2022-09-02T19:41:32.775Z,17.23
2022-09-02T19:47:20.691Z,17.16
2022-09-02T19:51:35.081Z,17.11
2022-09-02T19:56:34.815Z,17.07
2022-09-02T20:01:35.548Z,17.00
2022-09-02T20:06:36.324Z,16.96
2022-09-02T20:11:37.228Z,16.88
2022-09-02T20:16:37.703Z,16.86
2022-09-02T20:21:38.476Z,16.82
2022-09-02T20:26:39.259Z,16.78
2022-09-02T20:31:40.042Z,16.75
2022-09-02T20:36:40.829Z,16.71
2022-09-02T20:41:41.603Z,16.66
2022-09-02T20:46:42.445Z,16.66
2022-09-02T20:51:43.257Z,16.66
2022-09-02T20:56:44.001Z,16.63
2022-09-02T21:01:44.770Z,16.61
2022-09-02T21:06:45.510Z,16.57
2022-09-02T21:11:46.239Z,16.49
2022-09-02T21:16:46.968Z,16.39
2022-09-02T21:21:47.666Z,16.25
2022-09-02T21:26:49.156Z,16.17
2022-09-02T21:31:49.080Z,16.09
2022-09-02T21:36:49.892Z,16.05
2022-09-02T21:41:50.661Z,15.96
2022-09-02T21:46:51.387Z,15.93
2022-09-02T21:51:52.080Z,15.84
2022-09-02T21:56:52.826Z,15.80
2022-09-02T22:01:53.630Z,15.71
2022-09-02T22:06:54.376Z,15.67
2022-09-02T22:11:55.130Z,15.65
2022-09-02T22:16:55.863Z,15.60
2022-09-02T22:21:56.598Z,15.57
2022-09-02T22:26:57.361Z,15.54
2022-09-02T22:31:58.140Z,15.47
2022-09-02T22:36:58.896Z,15.44
2022-09-02T22:41:59.619Z,15.41
2022-09-02T22:47:00.424Z,15.44
2022-09-02T22:52:08.075Z,15.38
2022-09-02T22:57:01.777Z,15.34
2022-09-02T23:02:02.531Z,15.31
2022-09-02T23:07:03.390Z,15.25
2022-09-02T23:12:04.190Z,15.20
2022-09-02T23:17:04.852Z,15.16
2022-09-02T23:22:05.807Z,15.13
2022-09-02T23:27:06.524Z,15.11
2022-09-02T23:32:07.392Z,15.09
2022-09-02T23:37:08.253Z,15.01
2022-09-02T23:42:08.924Z,15.01
2022-09-02T23:47:09.827Z,14.99
2022-09-02T23:52:10.591Z,14.94
2022-09-02T23:57:11.484Z,14.92
